sensor_id;sensor_type;location;lat;lon;timestamp;pressure;altitude;pressure_sealevel;temperature;humidity
13241;BME280;6687;47.790;7.322;2022-09-23T06:12:27;99130.03;;;8.68;82.87
13241;BME280;6687;47.790;7.322;2022-09-23T06:14:53;99131.81;;;8.75;83.21
13241;BME280;6687;47.790;7.322;2022-09-23T06:17:20;99127.59;;;8.80;82.81
13241;BME280;6687;47.790;7.322;2022-09-23T06:19:47;99124.22;;;8.89;82.31
13241;BME280;6687;47.790;7.322;2022-09-23T06:22:13;99123.50;;;9.01;81.66
13241;BME280;6687;47.790;7.322;2022-09-23T06:24:42;99126.19;;;9.10;80.09
13241;BME280;6687;47.790;7.322;2022-09-23T06:27:09;99117.66;;;9.20;78.32
13241;BME280;6687;47.790;7.322;2022-09-23T06:29:37;99123.72;;;9.19;79.53
13241;BME280;6687;47.790;7.322;2022-09-23T06:32:04;99132.47;;;9.33;78.68
13241;BME280;6687;47.790;7.322;2022-09-23T06:34:31;99119.63;;;9.46;77.08
13241;BME280;6687;47.790;7.322;2022-09-23T06:36:58;99125.78;;;9.57;75.97
13241;BME280;6687;47.790;7.322;2022-09-23T06:39:24;99120.66;;;9.63;74.86
13241;BME280;6687;47.790;7.322;2022-09-23T06:41:51;99131.19;;;9.85;73.06
13241;BME280;6687;47.790;7.322;2022-09-23T06:44:18;99124.34;;;9.98;72.08
13241;BME280;6687;47.790;7.322;2022-09-23T06:46:46;99133.03;;;10.07;71.92
13241;BME280;6687;47.790;7.322;2022-09-23T06:49:13;99134.84;;;10.18;70.97
13241;BME280;6687;47.790;7.322;2022-09-23T06:51:39;99134.09;;;10.31;70.58
13241;BME280;6687;47.790;7.322;2022-09-23T06:54:06;99144.50;;;10.42;69.58
13241;BME280;6687;47.790;7.322;2022-09-23T06:56:33;99139.41;;;10.57;68.47
13241;BME280;6687;47.790;7.322;2022-09-23T06:59:00;99137.69;;;10.62;68.94
13241;BME280;6687;47.790;7.322;2022-09-23T07:01:27;99141.19;;;10.70;69.16
13241;BME280;6687;47.790;7.322;2022-09-23T07:03:55;99140.34;;;10.76;69.01
13241;BME280;6687;47.790;7.322;2022-09-23T07:06:21;99145.53;;;10.82;69.13
13241;BME280;6687;47.790;7.322;2022-09-23T07:08:48;99148.16;;;10.87;68.64
13241;BME280;6687;47.790;7.322;2022-09-23T07:11:15;99143.88;;;10.98;67.96
13241;BME280;6687;47.790;7.322;2022-09-23T07:13:46;99149.09;;;11.07;67.52
13241;BME280;6687;47.790;7.322;2022-09-23T07:16:13;99147.38;;;11.15;67.94
13241;BME280;6687;47.790;7.322;2022-09-23T07:18:40;99148.28;;;11.22;67.89
13241;BME280;6687;47.790;7.322;2022-09-23T07:21:09;99143.97;;;11.29;68.78
13241;BME280;6687;47.790;7.322;2022-09-23T07:23:39;99145.69;;;11.34;67.38
13241;BME280;6687;47.790;7.322;2022-09-23T07:26:06;99147.44;;;11.63;65.07
13241;BME280;6687;47.790;7.322;2022-09-23T07:28:33;99144.00;;;11.64;65.32
13241;BME280;6687;47.790;7.322;2022-09-23T07:31:02;99145.72;;;11.68;65.05
13241;BME280;6687;47.790;7.322;2022-09-23T07:33:30;99147.44;;;11.75;64.91
13241;BME280;6687;47.790;7.322;2022-09-23T07:36:02;99140.53;;;11.71;66.27
13241;BME280;6687;47.790;7.322;2022-09-23T07:38:30;99145.72;;;11.87;64.07
13241;BME280;6687;47.790;7.322;2022-09-23T07:41:02;99143.16;;;11.96;64.72
13241;BME280;6687;47.790;7.322;2022-09-23T07:43:29;99136.22;;;12.09;63.48
13241;BME280;6687;47.790;7.322;2022-09-23T07:45:58;99140.56;;;12.08;63.96
13241;BME280;6687;47.790;7.322;2022-09-23T07:48:26;99138.78;;;12.26;63.20
13241;BME280;6687;47.790;7.322;2022-09-23T07:50:54;99139.63;;;12.31;63.13
13241;BME280;6687;47.790;7.322;2022-09-23T07:53:21;99142.25;;;12.34;63.70
13241;BME280;6687;47.790;7.322;2022-09-23T07:55:53;99133.53;;;12.53;62.30
13241;BME280;6687;47.790;7.322;2022-09-23T07:58:20;99145.63;;;12.64;61.94
13241;BME280;6687;47.790;7.322;2022-09-23T08:00:47;99145.56;;;12.73;62.19
13241;BME280;6687;47.790;7.322;2022-09-23T08:03:18;99142.09;;;12.71;63.07
13241;BME280;6687;47.790;7.322;2022-09-23T08:05:45;99150.78;;;12.70;64.13
13241;BME280;6687;47.790;7.322;2022-09-23T08:08:12;99142.97;;;12.76;63.74
13241;BME280;6687;47.790;7.322;2022-09-23T08:10:39;99148.09;;;12.88;62.38
13241;BME280;6687;47.790;7.322;2022-09-23T08:13:08;99144.63;;;12.94;62.65
13241;BME280;6687;47.790;7.322;2022-09-23T08:15:35;99142.88;;;12.99;61.72
13241;BME280;6687;47.790;7.322;2022-09-23T08:18:02;99144.56;;;13.05;63.65
13241;BME280;6687;47.790;7.322;2022-09-23T08:20:29;99141.06;;;13.15;62.14
13241;BME280;6687;47.790;7.322;2022-09-23T08:23:12;99142.72;;;13.22;61.88
13241;BME280;6687;47.790;7.322;2022-09-23T08:25:39;99134.91;;;13.31;61.95
13241;BME280;6687;47.790;7.322;2022-09-23T08:28:05;99133.13;;;13.40;62.02
13241;BME280;6687;47.790;7.322;2022-09-23T08:30:34;99138.28;;;13.49;61.30
13241;BME280;6687;47.790;7.322;2022-09-23T08:33:01;99139.97;;;13.50;62.57
13241;BME280;6687;47.790;7.322;2022-09-23T08:35:28;99127.94;;;13.29;67.04
13241;BME280;6687;47.790;7.322;2022-09-23T08:37:54;99127.84;;;13.49;65.35
13241;BME280;6687;47.790;7.322;2022-09-23T08:40:22;99129.50;;;13.58;64.84
13241;BME280;6687;47.790;7.322;2022-09-23T08:42:49;99129.47;;;13.65;62.76
13241;BME280;6687;47.790;7.322;2022-09-23T08:45:18;99121.50;;;13.82;62.35
13241;BME280;6687;47.790;7.322;2022-09-23T08:47:51;99122.31;;;13.89;61.96
13241;BME280;6687;47.790;7.322;2022-09-23T08:50:22;99124.88;;;13.93;61.96
13241;BME280;6687;47.790;7.322;2022-09-23T08:52:51;99128.31;;;13.99;62.79
13241;BME280;6687;47.790;7.322;2022-09-23T08:55:23;99125.59;;;14.06;62.29
13241;BME280;6687;47.790;7.322;2022-09-23T08:58:03;99132.44;;;14.20;62.06
13241;BME280;6687;47.790;7.322;2022-09-23T09:00:36;99126.25;;;14.30;62.44
13241;BME280;6687;47.790;7.322;2022-09-23T09:03:18;99125.31;;;14.34;63.45
13241;BME280;6687;47.790;7.322;2022-09-23T09:05:46;99133.06;;;14.42;62.68
13241;BME280;6687;47.790;7.322;2022-09-23T09:08:19;99122.63;;;14.45;63.20
13241;BME280;6687;47.790;7.322;2022-09-23T09:10:51;99121.63;;;14.55;63.24
13241;BME280;6687;47.790;7.322;2022-09-23T09:13:27;99125.03;;;14.62;63.18
13241;BME280;6687;47.790;7.322;2022-09-23T09:16:14;99114.53;;;14.71;63.21
13241;BME280;6687;47.790;7.322;2022-09-23T09:18:50;99115.25;;;14.82;63.60
13241;BME280;6687;47.790;7.322;2022-09-23T09:21:18;99112.41;;;14.98;63.73
13241;BME280;6687;47.790;7.322;2022-09-23T09:23:53;99104.47;;;15.08;63.74
13241;BME280;6687;47.790;7.322;2022-09-23T09:26:23;99104.31;;;15.18;63.55
13241;BME280;6687;47.790;7.322;2022-09-23T09:28:54;99104.16;;;15.28;63.37
13241;BME280;6687;47.790;7.322;2022-09-23T09:31:29;99098.00;;;15.32;63.24
13241;BME280;6687;47.790;7.322;2022-09-23T09:34:02;99096.03;;;15.47;63.13
13241;BME280;6687;47.790;7.322;2022-09-23T09:36:37;99096.75;;;15.58;62.70
13241;BME280;6687;47.790;7.322;2022-09-23T09:39:10;99095.84;;;15.59;62.63
13241;BME280;6687;47.790;7.322;2022-09-23T09:41:39;99085.19;;;15.75;60.86
13241;BME280;6687;47.790;7.322;2022-09-23T09:44:20;99076.34;;;15.82;61.15
13241;BME280;6687;47.790;7.322;2022-09-23T09:47:05;99073.53;;;15.93;62.59
13241;BME280;6687;47.790;7.322;2022-09-23T09:49:40;99077.72;;;16.01;61.35
13241;BME280;6687;47.790;7.322;2022-09-23T09:52:12;99074.06;;;16.12;62.08
13241;BME280;6687;47.790;7.322;2022-09-23T09:54:40;99073.97;;;16.18;61.44
13241;BME280;6687;47.790;7.322;2022-09-23T09:57:16;99071.00;;;16.35;60.86
13241;BME280;6687;47.790;7.322;2022-09-23T09:59:44;99070.03;;;16.39;60.89
13241;BME280;6687;47.790;7.322;2022-09-23T10:02:19;99060.38;;;16.42;61.01
13241;BME280;6687;47.790;7.322;2022-09-23T10:04:58;99065.38;;;16.53;61.09
13241;BME280;6687;47.790;7.322;2022-09-23T10:07:28;99060.91;;;16.60;59.90
13241;BME280;6687;47.790;7.322;2022-09-23T10:09:56;99055.53;;;16.66;60.13
13241;BME280;6687;47.790;7.322;2022-09-23T10:12:25;99053.56;;;16.77;59.43
13241;BME280;6687;47.790;7.322;2022-09-23T10:14:55;99048.22;;;16.83;60.06
13241;BME280;6687;47.790;7.322;2022-09-23T10:17:23;99046.22;;;16.95;59.50
13241;BME280;6687;47.790;7.322;2022-09-23T10:19:57;99042.56;;;17.02;59.33
13241;BME280;6687;47.790;7.322;2022-09-23T10:22:27;99042.41;;;17.08;58.18
13241;BME280;6687;47.790;7.322;2022-09-23T10:24:58;99029.16;;;17.16;58.59
13241;BME280;6687;47.790;7.322;2022-09-23T10:27:29;99024.41;;;17.32;58.54
13241;BME280;6687;47.790;7.322;2022-09-23T10:29:59;99031.28;;;17.36;54.14
13241;BME280;6687;47.790;7.322;2022-09-23T10:32:29;99030.16;;;17.46;57.16
13241;BME280;6687;47.790;7.322;2022-09-23T10:35:01;99024.72;;;17.54;55.43
13241;BME280;6687;47.790;7.322;2022-09-23T10:37:33;99019.19;;;17.64;56.06
13241;BME280;6687;47.790;7.322;2022-09-23T10:40:12;99023.22;;;17.78;56.39
13241;BME280;6687;47.790;7.322;2022-09-23T10:43:07;99016.06;;;17.86;56.05
13241;BME280;6687;47.790;7.322;2022-09-23T10:45:59;99012.19;;;17.99;51.50
13241;BME280;6687;47.790;7.322;2022-09-23T10:48:56;99008.38;;;18.11;54.82
13241;BME280;6687;47.790;7.322;2022-09-23T10:51:34;99005.44;;;18.22;54.41
13241;BME280;6687;47.790;7.322;2022-09-23T10:54:12;99001.75;;;18.29;54.21
13241;BME280;6687;47.790;7.322;2022-09-23T10:56:45;98996.00;;;18.46;47.38
13241;BME280;6687;47.790;7.322;2022-09-23T10:59:40;98992.22;;;18.56;51.13
13241;BME280;6687;47.790;7.322;2022-09-23T11:02:25;98994.00;;;18.54;52.86
13241;BME280;6687;47.790;7.322;2022-09-23T11:05:24;98988.28;;;18.69;51.63
13241;BME280;6687;47.790;7.322;2022-09-23T11:08:05;98987.09;;;18.81;52.98
13241;BME280;6687;47.790;7.322;2022-09-23T11:10:55;98983.69;;;19.06;46.95
13241;BME280;6687;47.790;7.322;2022-09-23T11:13:41;98985.56;;;19.02;51.75
13241;BME280;6687;47.790;7.322;2022-09-23T11:16:20;98978.16;;;19.14;51.46
13241;BME280;6687;47.790;7.322;2022-09-23T11:19:04;98972.97;;;19.39;47.75
13241;BME280;6687;47.790;7.322;2022-09-23T11:21:52;98970.94;;;19.47;49.02
13241;BME280;6687;47.790;7.322;2022-09-23T11:24:47;98971.38;;;19.60;49.79
13241;BME280;6687;47.790;7.322;2022-09-23T11:27:30;98967.41;;;19.73;49.59
13241;BME280;6687;47.790;7.322;2022-09-23T11:30:06;98962.69;;;19.83;47.25
13241;BME280;6687;47.790;7.322;2022-09-23T11:32:53;98960.53;;;19.94;47.15
13241;BME280;6687;47.790;7.322;2022-09-23T11:35:30;98957.88;;;19.96;48.14
13241;BME280;6687;47.790;7.322;2022-09-23T11:38:04;98953.47;;;20.20;47.16
13241;BME280;6687;47.790;7.322;2022-09-23T11:40:36;98961.59;;;20.14;48.46
13241;BME280;6687;47.790;7.322;2022-09-23T11:43:10;98957.91;;;20.41;46.79
13241;BME280;6687;47.790;7.322;2022-09-23T11:45:44;98955.91;;;20.48;45.90
13241;BME280;6687;47.790;7.322;2022-09-23T11:48:15;98952.34;;;20.49;46.67
13241;BME280;6687;47.790;7.322;2022-09-23T11:50:47;98946.16;;;20.74;45.58
13241;BME280;6687;47.790;7.322;2022-09-23T11:53:20;98954.06;;;20.74;47.44
13241;BME280;6687;47.790;7.322;2022-09-23T11:55:52;98946.94;;;20.98;43.79
13241;BME280;6687;47.790;7.322;2022-09-23T11:58:28;98958.00;;;21.06;43.19
13241;BME280;6687;47.790;7.322;2022-09-23T12:00:59;98950.66;;;21.14;45.41
13241;BME280;6687;47.790;7.322;2022-09-23T12:03:37;98947.31;;;21.31;45.08
13241;BME280;6687;47.790;7.322;2022-09-23T12:06:09;98953.03;;;21.20;46.33
13241;BME280;6687;47.790;7.322;2022-09-23T12:08:38;98944.47;;;21.36;43.87
13241;BME280;6687;47.790;7.322;2022-09-23T12:11:14;98941.50;;;21.45;44.56
13241;BME280;6687;47.790;7.322;2022-09-23T12:13:47;98943.19;;;21.46;45.83
13241;BME280;6687;47.790;7.322;2022-09-23T12:16:40;98939.66;;;21.47;46.19
13241;BME280;6687;47.790;7.322;2022-09-23T12:19:19;98931.19;;;21.59;45.79
13241;BME280;6687;47.790;7.322;2022-09-23T12:22:03;98936.19;;;21.65;46.40
13241;BME280;6687;47.790;7.322;2022-09-23T12:24:48;98922.63;;;21.75;46.52
13241;BME280;6687;47.790;7.322;2022-09-23T12:27:28;98923.06;;;22.03;45.57
13241;BME280;6687;47.790;7.322;2022-09-23T12:30:02;98925.88;;;22.19;45.54
13241;BME280;6687;47.790;7.322;2022-09-23T12:32:30;98916.78;;;22.27;43.88
13241;BME280;6687;47.790;7.322;2022-09-23T12:34:58;98917.63;;;22.27;43.44
13241;BME280;6687;47.790;7.322;2022-09-23T12:37:27;98923.22;;;22.57;43.47
13241;BME280;6687;47.790;7.322;2022-09-23T12:39:59;98916.94;;;22.60;44.41
13241;BME280;6687;47.790;7.322;2022-09-23T12:42:28;98908.44;;;22.72;42.78
13241;BME280;6687;47.790;7.322;2022-09-23T12:45:16;98906.75;;;22.89;44.12
13241;BME280;6687;47.790;7.322;2022-09-23T12:47:44;98905.97;;;22.87;44.43
13241;BME280;6687;47.790;7.322;2022-09-23T12:53:54;98890.25;;;23.20;42.24
13241;BME280;6687;47.790;7.322;2022-09-23T12:56:27;98885.31;;;23.30;44.00
13241;BME280;6687;47.790;7.322;2022-09-23T12:59:09;98888.75;;;23.32;43.37
13241;BME280;6687;47.790;7.322;2022-09-23T13:01:38;98888.28;;;23.41;43.99
13241;BME280;6687;47.790;7.322;2022-09-23T13:04:26;98888.63;;;23.68;42.74
13241;BME280;6687;47.790;7.322;2022-09-23T13:07:14;98884.50;;;23.80;41.41
13241;BME280;6687;47.790;7.322;2022-09-23T13:09:45;98881.66;;;23.83;41.04
13241;BME280;6687;47.790;7.322;2022-09-23T13:12:18;98874.84;;;23.79;42.95
13241;BME280;6687;47.790;7.322;2022-09-23T13:14:49;98879.69;;;23.53;42.59
13241;BME280;6687;47.790;7.322;2022-09-23T13:17:23;98869.84;;;23.73;42.55
13241;BME280;6687;47.790;7.322;2022-09-23T13:19:58;98868.03;;;24.07;41.65
13241;BME280;6687;47.790;7.322;2022-09-23T13:22:40;98858.84;;;23.98;40.28
13241;BME280;6687;47.790;7.322;2022-09-23T13:25:15;98863.19;;;24.15;41.60
13241;BME280;6687;47.790;7.322;2022-09-23T13:27:45;98865.81;;;24.15;39.65
13241;BME280;6687;47.790;7.322;2022-09-23T13:30:18;98861.22;;;24.34;41.53
13241;BME280;6687;47.790;7.322;2022-09-23T13:32:49;98859.34;;;24.36;41.61
13241;BME280;6687;47.790;7.322;2022-09-23T13:35:24;98854.66;;;24.10;40.24
13241;BME280;6687;47.790;7.322;2022-09-23T13:37:52;98854.22;;;24.33;40.39
13241;BME280;6687;47.790;7.322;2022-09-23T13:40:22;98854.38;;;24.30;40.83
13241;BME280;6687;47.790;7.322;2022-09-23T13:42:54;98857.81;;;24.32;41.48
13241;BME280;6687;47.790;7.322;2022-09-23T13:45:24;98848.47;;;24.25;41.22
13241;BME280;6687;47.790;7.322;2022-09-23T13:47:54;98846.88;;;24.22;41.59
13241;BME280;6687;47.790;7.322;2022-09-23T13:50:25;98842.25;;;24.26;41.55
13241;BME280;6687;47.790;7.322;2022-09-23T13:52:54;98845.53;;;24.31;40.83
13241;BME280;6687;47.790;7.322;2022-09-23T13:55:33;98844.28;;;24.37;40.68
13241;BME280;6687;47.790;7.322;2022-09-23T13:58:04;98837.56;;;24.31;40.76
13241;BME280;6687;47.790;7.322;2022-09-23T14:00:36;98834.72;;;24.34;40.29
13241;BME280;6687;47.790;7.322;2022-09-23T14:03:16;98837.31;;;24.36;40.84
13241;BME280;6687;47.790;7.322;2022-09-23T14:05:44;98829.38;;;24.20;39.39
13241;BME280;6687;47.790;7.322;2022-09-23T14:08:11;98838.44;;;24.16;41.75
13241;BME280;6687;47.790;7.322;2022-09-23T14:10:38;98834.59;;;24.06;39.87
13241;BME280;6687;47.790;7.322;2022-09-23T14:13:14;98839.16;;;24.50;40.74
13241;BME280;6687;47.790;7.322;2022-09-23T14:15:44;98830.44;;;24.48;40.71
13241;BME280;6687;47.790;7.322;2022-09-23T14:18:15;98830.13;;;24.54;40.81
13241;BME280;6687;47.790;7.322;2022-09-23T14:20:45;98829.94;;;24.57;40.54
13241;BME280;6687;47.790;7.322;2022-09-23T14:23:13;98830.19;;;24.36;41.40
13241;BME280;6687;47.790;7.322;2022-09-23T14:25:40;98827.91;;;24.30;40.45
13241;BME280;6687;47.790;7.322;2022-09-23T14:28:12;98825.34;;;24.29;41.62
13241;BME280;6687;47.790;7.322;2022-09-23T14:30:40;98824.34;;;24.31;41.63
13241;BME280;6687;47.790;7.322;2022-09-23T14:33:14;98827.50;;;24.22;41.33
13241;BME280;6687;47.790;7.322;2022-09-23T14:35:44;98826.38;;;23.78;40.68
13241;BME280;6687;47.790;7.322;2022-09-23T14:38:20;98821.59;;;24.17;41.18
13241;BME280;6687;47.790;7.322;2022-09-23T14:41:14;98819.03;;;24.15;40.92
13241;BME280;6687;47.790;7.322;2022-09-23T14:43:47;98822.13;;;24.08;40.54
13241;BME280;6687;47.790;7.322;2022-09-23T14:46:16;98815.63;;;24.13;41.39
13241;BME280;6687;47.790;7.322;2022-09-23T14:48:53;98811.75;;;24.19;41.22
13241;BME280;6687;47.790;7.322;2022-09-23T14:51:21;98815.88;;;24.09;40.83
13241;BME280;6687;47.790;7.322;2022-09-23T14:57:18;98810.34;;;23.97;40.95
13241;BME280;6687;47.790;7.322;2022-09-23T14:59:51;98804.47;;;23.75;40.65
13241;BME280;6687;47.790;7.322;2022-09-23T15:02:33;98801.88;;;24.07;40.67
13241;BME280;6687;47.790;7.322;2022-09-23T15:05:13;98797.41;;;23.91;41.00
13241;BME280;6687;47.790;7.322;2022-09-23T15:07:40;98801.03;;;23.90;41.36
13241;BME280;6687;47.790;7.322;2022-09-23T15:10:15;98796.44;;;23.60;41.25
13241;BME280;6687;47.790;7.322;2022-09-23T15:12:45;98799.56;;;23.51;41.96
13241;BME280;6687;47.790;7.322;2022-09-23T15:15:15;98800.34;;;23.53;41.88
13241;BME280;6687;47.790;7.322;2022-09-23T15:17:43;98791.16;;;23.60;41.73
13241;BME280;6687;47.790;7.322;2022-09-23T15:20:21;98803.56;;;23.42;43.12
13241;BME280;6687;47.790;7.322;2022-09-23T15:22:49;98790.09;;;23.47;42.89
13241;BME280;6687;47.790;7.322;2022-09-23T15:25:19;98788.75;;;23.56;42.86
13241;BME280;6687;47.790;7.322;2022-09-23T15:27:56;98789.75;;;23.53;42.51
13241;BME280;6687;47.790;7.322;2022-09-23T15:30:24;98783.84;;;23.66;42.69
13241;BME280;6687;47.790;7.322;2022-09-23T15:32:51;98785.97;;;23.41;42.43
13241;BME280;6687;47.790;7.322;2022-09-23T15:35:21;98787.00;;;23.39;42.87
13241;BME280;6687;47.790;7.322;2022-09-23T15:37:50;98783.69;;;23.51;43.48
13241;BME280;6687;47.790;7.322;2022-09-23T15:40:20;98776.38;;;23.56;43.18
13241;BME280;6687;47.790;7.322;2022-09-23T15:42:48;98780.50;;;23.62;43.62
13241;BME280;6687;47.790;7.322;2022-09-23T15:45:17;98780.38;;;23.32;43.35
13241;BME280;6687;47.790;7.322;2022-09-23T15:47:46;98780.63;;;23.43;43.79
13241;BME280;6687;47.790;7.322;2022-09-23T15:50:13;98780.09;;;23.36;44.05
13241;BME280;6687;47.790;7.322;2022-09-23T15:52:41;98777.25;;;23.23;44.36
13241;BME280;6687;47.790;7.322;2022-09-23T15:55:14;98782.09;;;22.98;44.20
13241;BME280;6687;47.790;7.322;2022-09-23T15:57:41;98783.16;;;22.94;44.84
13241;BME280;6687;47.790;7.322;2022-09-23T16:00:09;98782.09;;;22.98;44.95
13241;BME280;6687;47.790;7.322;2022-09-23T16:02:37;98772.94;;;23.05;44.71
13241;BME280;6687;47.790;7.322;2022-09-23T16:05:05;98776.50;;;22.69;45.26
13241;BME280;6687;47.790;7.322;2022-09-23T16:07:32;98771.69;;;22.95;45.16
13241;BME280;6687;47.790;7.322;2022-09-23T16:10:02;98773.88;;;22.87;45.12
13241;BME280;6687;47.790;7.322;2022-09-23T16:12:28;98778.84;;;22.93;44.95
13241;BME280;6687;47.790;7.322;2022-09-23T16:14:55;98777.75;;;22.79;45.55
13241;BME280;6687;47.790;7.322;2022-09-23T16:17:22;98775.59;;;22.70;45.22
13241;BME280;6687;47.790;7.322;2022-09-23T16:19:49;98780.00;;;22.70;45.69
13241;BME280;6687;47.790;7.322;2022-09-23T16:22:16;98784.09;;;22.58;45.84
13241;BME280;6687;47.790;7.322;2022-09-23T16:24:42;98778.59;;;22.45;46.04
13241;BME280;6687;47.790;7.322;2022-09-23T16:27:11;98781.91;;;22.31;46.37
13241;BME280;6687;47.790;7.322;2022-09-23T16:29:42;98779.63;;;22.42;46.30
13241;BME280;6687;47.790;7.322;2022-09-23T16:32:08;98778.19;;;22.35;46.02
13241;BME280;6687;47.790;7.322;2022-09-23T16:34:35;98783.47;;;22.35;46.33
13241;BME280;6687;47.790;7.322;2022-09-23T16:37:02;98783.13;;;22.24;46.70
13241;BME280;6687;47.790;7.322;2022-09-23T16:39:29;98777.34;;;22.16;46.74
13241;BME280;6687;47.790;7.322;2022-09-23T16:41:56;98780.63;;;22.21;46.58
13241;BME280;6687;47.790;7.322;2022-09-23T16:44:24;98777.50;;;22.13;46.67
13241;BME280;6687;47.790;7.322;2022-09-23T16:46:51;98776.25;;;22.02;47.05
13241;BME280;6687;47.790;7.322;2022-09-23T16:49:17;98779.56;;;22.06;46.91
13241;BME280;6687;47.790;7.322;2022-09-23T16:51:45;98777.22;;;22.00;46.82
13241;BME280;6687;47.790;7.322;2022-09-23T16:54:12;98774.94;;;21.92;47.13
13241;BME280;6687;47.790;7.322;2022-09-23T16:56:40;98778.13;;;21.81;47.20
13241;BME280;6687;47.790;7.322;2022-09-23T16:59:09;98773.97;;;21.76;47.52
13241;BME280;6687;47.790;7.322;2022-09-23T17:01:37;98774.28;;;21.70;47.63
13241;BME280;6687;47.790;7.322;2022-09-23T17:04:22;98774.50;;;21.65;47.58
13241;BME280;6687;47.790;7.322;2022-09-23T17:06:50;98778.19;;;21.61;47.58
13241;BME280;6687;47.790;7.322;2022-09-23T17:09:19;98773.41;;;21.50;47.89
13241;BME280;6687;47.790;7.322;2022-09-23T17:11:50;98778.97;;;21.44;48.13
13241;BME280;6687;47.790;7.322;2022-09-23T17:14:17;98774.16;;;21.33;48.54
13241;BME280;6687;47.790;7.322;2022-09-23T17:16:46;98774.50;;;21.25;48.96
13241;BME280;6687;47.790;7.322;2022-09-23T17:19:12;98779.19;;;21.19;48.68
13241;BME280;6687;47.790;7.322;2022-09-23T17:21:39;98782.28;;;21.08;49.04
13241;BME280;6687;47.790;7.322;2022-09-23T17:24:06;98779.13;;;21.00;49.48
13241;BME280;6687;47.790;7.322;2022-09-23T17:26:34;98780.47;;;20.90;49.56
13241;BME280;6687;47.790;7.322;2022-09-23T17:29:02;98777.09;;;20.86;49.40
13241;BME280;6687;47.790;7.322;2022-09-23T17:31:29;98786.06;;;20.82;49.06
13241;BME280;6687;47.790;7.322;2022-09-23T17:33:57;98783.00;;;20.71;49.45
13241;BME280;6687;47.790;7.322;2022-09-23T17:36:25;98782.66;;;20.58;49.83
13241;BME280;6687;47.790;7.322;2022-09-23T17:38:52;98787.38;;;20.50;49.79
13241;BME280;6687;47.790;7.322;2022-09-23T17:41:19;98788.78;;;20.36;50.32
13241;BME280;6687;47.790;7.322;2022-09-23T17:43:47;98789.06;;;20.30;50.43
13241;BME280;6687;47.790;7.322;2022-09-23T17:46:18;98786.47;;;20.29;50.28
13241;BME280;6687;47.790;7.322;2022-09-23T17:48:45;98784.25;;;20.19;50.66
13241;BME280;6687;47.790;7.322;2022-09-23T17:51:14;98776.56;;;20.13;50.62
13241;BME280;6687;47.790;7.322;2022-09-23T17:53:44;98777.06;;;20.01;51.18
13241;BME280;6687;47.790;7.322;2022-09-23T17:56:14;98773.81;;;19.94;51.68
13241;BME280;6687;47.790;7.322;2022-09-23T17:58:42;98769.91;;;19.82;52.46
13241;BME280;6687;47.790;7.322;2022-09-23T18:01:10;98771.78;;;19.79;51.71
13241;BME280;6687;47.790;7.322;2022-09-23T18:03:37;98772.03;;;19.73;51.57
13241;BME280;6687;47.790;7.322;2022-09-23T18:06:08;98779.31;;;19.64;51.98
13241;BME280;6687;47.790;7.322;2022-09-23T18:08:38;98779.78;;;19.52;52.85
13241;BME280;6687;47.790;7.322;2022-09-23T18:11:12;98780.88;;;19.46;52.99
13241;BME280;6687;47.790;7.322;2022-09-23T18:13:40;98776.75;;;19.39;53.26
13241;BME280;6687;47.790;7.322;2022-09-23T18:16:06;98770.06;;;19.31;54.27
13241;BME280;6687;47.790;7.322;2022-09-23T18:18:33;98766.97;;;19.19;55.16
13241;BME280;6687;47.790;7.322;2022-09-23T18:21:00;98764.53;;;19.15;55.81
13241;BME280;6687;47.790;7.322;2022-09-23T18:23:27;98765.72;;;19.06;56.64
13241;BME280;6687;47.790;7.322;2022-09-23T18:25:55;98763.38;;;18.98;57.15
13241;BME280;6687;47.790;7.322;2022-09-23T18:28:22;98768.38;;;18.79;58.82
13241;BME280;6687;47.790;7.322;2022-09-23T18:30:52;98771.56;;;18.62;60.03
13241;BME280;6687;47.790;7.322;2022-09-23T18:33:19;98773.94;;;18.17;62.24
13241;BME280;6687;47.790;7.322;2022-09-23T18:35:46;98773.56;;;18.29;62.18
13241;BME280;6687;47.790;7.322;2022-09-23T18:38:13;98767.34;;;18.32;61.53
13241;BME280;6687;47.790;7.322;2022-09-23T18:40:48;98768.91;;;18.11;61.74
13241;BME280;6687;47.790;7.322;2022-09-23T18:43:16;98763.53;;;18.14;61.53
13241;BME280;6687;47.790;7.322;2022-09-23T18:45:53;98754.84;;;17.85;61.08
13241;BME280;6687;47.790;7.322;2022-09-23T18:48:20;98763.63;;;17.82;61.31
13241;BME280;6687;47.790;7.322;2022-09-23T18:51:06;98770.38;;;17.91;60.27
13241;BME280;6687;47.790;7.322;2022-09-23T18:53:33;98767.84;;;17.88;60.02
13241;BME280;6687;47.790;7.322;2022-09-23T18:56:03;98773.19;;;17.85;59.47
13241;BME280;6687;47.790;7.322;2022-09-23T18:58:31;98771.00;;;17.99;58.49
13241;BME280;6687;47.790;7.322;2022-09-23T19:01:01;98767.66;;;17.94;58.27
13241;BME280;6687;47.790;7.322;2022-09-23T19:03:28;98768.13;;;17.79;58.07
13241;BME280;6687;47.790;7.322;2022-09-23T19:06:00;98763.06;;;17.73;57.88
13241;BME280;6687;47.790;7.322;2022-09-23T19:08:27;98767.13;;;17.53;58.23
13241;BME280;6687;47.790;7.322;2022-09-23T19:10:54;98761.78;;;17.56;58.14
13241;BME280;6687;47.790;7.322;2022-09-23T19:13:21;98766.00;;;17.62;57.96
13241;BME280;6687;47.790;7.322;2022-09-23T19:15:49;98765.50;;;17.49;57.78
13241;BME280;6687;47.790;7.322;2022-09-23T19:18:16;98769.56;;;17.29;58.49
13241;BME280;6687;47.790;7.322;2022-09-23T19:20:48;98772.88;;;17.35;58.25
13241;BME280;6687;47.790;7.322;2022-09-23T19:23:15;98769.44;;;17.33;58.49
13241;BME280;6687;47.790;7.322;2022-09-23T19:25:42;98769.38;;;17.36;58.04
13241;BME280;6687;47.790;7.322;2022-09-23T19:28:08;98776.16;;;17.43;57.92
13241;BME280;6687;47.790;7.322;2022-09-23T19:30:35;98776.00;;;17.18;57.98
13241;BME280;6687;47.790;7.322;2022-09-23T19:33:04;98777.31;;;17.33;57.92
13241;BME280;6687;47.790;7.322;2022-09-23T19:35:33;98773.38;;;17.18;58.25
13241;BME280;6687;47.790;7.322;2022-09-23T19:38:00;98771.56;;;17.20;58.05
13241;BME280;6687;47.790;7.322;2022-09-23T19:40:30;98772.13;;;17.00;58.90
13241;BME280;6687;47.790;7.322;2022-09-23T19:42:56;98771.00;;;17.08;58.27
13241;BME280;6687;47.790;7.322;2022-09-23T19:45:23;98771.13;;;17.05;58.40
13241;BME280;6687;47.790;7.322;2022-09-23T19:47:52;98771.97;;;17.06;58.39
13241;BME280;6687;47.790;7.322;2022-09-23T19:50:21;98763.38;;;17.01;58.21
13241;BME280;6687;47.790;7.322;2022-09-23T19:52:48;98761.88;;;16.92;58.35